Aérodrome :
LOGIN :

S'inscrire | Disclaimer

   EN    FR    IT 

 










Légende :    VFR   VFR Marginal   IFR   IFR Intensif   IFR Très Intensif
Visi : 
Plafond : 
>= 8 km
>= 3000ft
5 à 8 km
1000 à 3000 ft
1500m à 5 km
500 à 1000 ft
800 à 1500m
200 à 500 ft
< 800m
< 200 ft
Symboles :   Orages  Brouillard  Fortes neiges  Fortes précipitations  Vent > 20 kt
SIGMETs :   Divers  Orages  Givrage  Turbulence  Onde Orograph.  Cendres Volcan.







- Altitude de l'aérodrome : 778 ft
- Code IATA : BRQ


LKTB - Brno-Turany

DERNIER METAR :
  • 211300Z 35012KT 9999 BKN043 19/12 Q1027 NOSIG

METARs EXPIRÉS :
  • 211230Z 32012KT 9999 SCT037 19/13 Q1027 NOSIG
  • 211200Z 32013KT 9999 FEW029 BKN037 20/13 Q1027 NOSIG
  • 211130Z 33013KT 9999 SCT038 20/13 Q1027 NOSIG
  • 211100Z 33014KT 9999 FEW029 19/13 Q1027 NOSIG
  • 211030Z 33013KT 9999 SCT033 19/13 Q1027 NOSIG

TAF TAF LKTB
Valide du 21 à 12h jusqu'au 22 à 18h UTC


211100Z 2112/2218 32012KT 9999 SCT035
PROB30
TEMPO 2112/2114 35014G24KT 7000 -RA BKN013
BECMG 2117/2119 03006KT CAVOK
BECMG 2207/2210 07014KT 9999 SCT040
TEMPO 2211/2216 BKN040
Pas de NOTAMs connus pour ce terrain.



MET'MAP, la Météo Aéronautique d'un coup d'oeil ! - Copyright ORBIFLY Décembre 2007 - Disclaimer

ORBIFLY MET'MAP TEAM :

Programmation & Développement : Alexandra Zaïnal
Conception & Développement : Baudouin d'Aumeries
Co-Programmation & Développement : Marc-Olivier Méhu
Soutien technique & logistique : Manuel Goepfert

Contact : metmap@orbifly.com




SOURCES & CREDITS :

   NOAA